createdAt,value
2018-03-02T00:00:14.428Z,15.56
2018-03-02T00:01:14.412Z,15.54
2018-03-02T00:02:14.445Z,15.53
2018-03-02T00:03:14.470Z,15.53
2018-03-02T00:04:14.450Z,15.53
2018-03-02T00:05:14.449Z,15.52
2018-03-02T00:06:14.410Z,15.53
2018-03-02T00:07:14.413Z,15.53
2018-03-02T00:08:14.432Z,15.51
2018-03-02T00:09:14.749Z,15.51
2018-03-02T00:10:14.424Z,15.51
2018-03-02T00:11:14.420Z,15.51
2018-03-02T00:12:14.418Z,15.51
2018-03-02T00:13:14.422Z,15.49
2018-03-02T00:14:14.452Z,15.5
2018-03-02T00:15:14.402Z,15.5
2018-03-02T00:16:14.467Z,15.49
2018-03-02T00:17:14.413Z,15.49
2018-03-02T00:18:14.423Z,15.48
2018-03-02T00:19:14.413Z,15.48
2018-03-02T00:20:14.428Z,15.46
2018-03-02T00:21:14.427Z,15.45
2018-03-02T00:22:14.419Z,15.45
2018-03-02T00:23:14.424Z,15.45
2018-03-02T00:24:14.415Z,15.45
2018-03-02T00:25:14.420Z,15.44
2018-03-02T00:26:14.450Z,15.44
2018-03-02T00:27:14.445Z,15.43
2018-03-02T00:28:14.413Z,15.42
2018-03-02T00:29:14.407Z,15.41
2018-03-02T00:30:14.410Z,15.4
2018-03-02T00:31:14.388Z,15.4
2018-03-02T00:32:14.456Z,15.39
2018-03-02T00:33:14.521Z,15.39
2018-03-02T00:34:14.525Z,15.38
2018-03-02T00:35:14.428Z,15.38
2018-03-02T00:36:14.459Z,15.37
2018-03-02T00:37:14.420Z,15.36
2018-03-02T00:38:14.420Z,15.36
2018-03-02T00:39:14.402Z,15.34
2018-03-02T00:40:14.456Z,15.34
2018-03-02T00:41:14.399Z,15.34
2018-03-02T00:42:14.413Z,15.31
2018-03-02T00:43:14.428Z,15.32
2018-03-02T00:44:14.434Z,15.32
2018-03-02T00:45:14.433Z,15.32
2018-03-02T00:46:14.398Z,15.32
2018-03-02T00:47:14.406Z,15.32
2018-03-02T00:48:14.402Z,15.32
2018-03-02T00:49:14.433Z,15.31
2018-03-02T00:50:14.430Z,15.3
2018-03-02T00:51:14.439Z,15.29
2018-03-02T00:52:14.423Z,15.28
2018-03-02T00:53:14.412Z,15.28
2018-03-02T00:54:14.416Z,15.27
2018-03-02T00:55:14.420Z,15.27
2018-03-02T00:56:14.414Z,15.26
2018-03-02T00:57:14.406Z,15.25
2018-03-02T00:58:14.403Z,15.25
2018-03-02T00:59:14.403Z,15.25
2018-03-02T01:00:14.412Z,15.25
2018-03-02T01:01:14.399Z,15.24
2018-03-02T01:02:14.404Z,15.24
2018-03-02T01:03:14.418Z,15.25
2018-03-02T01:04:14.449Z,15.25
2018-03-02T01:05:14.398Z,15.24
2018-03-02T01:06:14.396Z,15.22
2018-03-02T01:07:14.452Z,15.22
2018-03-02T01:08:14.418Z,15.22
2018-03-02T01:09:14.396Z,15.22
2018-03-02T01:10:14.393Z,15.22
2018-03-02T01:11:14.395Z,15.21
2018-03-02T01:12:14.441Z,15.21
2018-03-02T01:13:14.401Z,15.21
2018-03-02T01:14:14.414Z,15.2
2018-03-02T01:15:14.392Z,15.19
2018-03-02T01:16:14.428Z,15.19
2018-03-02T01:17:14.457Z,15.18
2018-03-02T01:18:14.427Z,15.18
2018-03-02T01:19:14.413Z,15.18
2018-03-02T01:20:14.395Z,15.18
2018-03-02T01:21:14.393Z,15.18
2018-03-02T01:22:14.441Z,15.17
2018-03-02T01:23:14.430Z,15.17
2018-03-02T01:24:14.425Z,15.16
2018-03-02T01:25:14.397Z,15.17
2018-03-02T01:26:14.384Z,15.16
2018-03-02T01:27:14.406Z,15.16
2018-03-02T01:28:14.407Z,15.15
2018-03-02T01:29:14.368Z,15.15
2018-03-02T01:30:14.418Z,15.14
2018-03-02T01:31:14.378Z,15.14
2018-03-02T01:32:14.364Z,15.14
2018-03-02T01:33:14.398Z,15.12
2018-03-02T01:34:14.391Z,15.12
2018-03-02T01:35:14.384Z,15.12
2018-03-02T01:36:14.415Z,15.12
2018-03-02T01:37:14.383Z,15.12
2018-03-02T01:38:14.408Z,15.11
2018-03-02T01:39:14.383Z,15.1
2018-03-02T01:40:14.413Z,15.1
2018-03-02T01:41:14.380Z,15.1
2018-03-02T01:42:14.382Z,15.09
2018-03-02T01:43:14.430Z,15.09
2018-03-02T01:44:14.386Z,15.09
2018-03-02T01:45:14.360Z,15.09
2018-03-02T01:46:14.391Z,15.08
2018-03-02T01:47:14.396Z,15.07
2018-03-02T01:48:14.396Z,15.07
2018-03-02T01:49:14.357Z,15.05
2018-03-02T01:50:14.408Z,15.06
2018-03-02T01:51:14.420Z,15.05
2018-03-02T01:52:14.406Z,15.05
2018-03-02T01:53:14.372Z,15.05
2018-03-02T01:54:14.386Z,15.05
2018-03-02T01:55:14.383Z,15.03
2018-03-02T01:56:14.363Z,15.03
2018-03-02T01:57:14.394Z,15.03
2018-03-02T01:58:14.394Z,15.03
2018-03-02T01:59:14.429Z,15.04
2018-03-02T02:00:14.389Z,15.03
2018-03-02T02:01:14.385Z,15.03
2018-03-02T02:02:14.394Z,15.03
2018-03-02T02:03:14.405Z,15.02
2018-03-02T02:04:14.406Z,15.01
2018-03-02T02:05:14.371Z,15
2018-03-02T02:06:14.368Z,15
2018-03-02T02:07:14.391Z,14.99
2018-03-02T02:08:14.376Z,14.99
2018-03-02T02:09:14.383Z,14.99
2018-03-02T02:10:14.369Z,14.99
2018-03-02T02:11:14.447Z,14.98
2018-03-02T02:12:14.380Z,14.98
2018-03-02T02:13:14.391Z,14.98
2018-03-02T02:14:14.427Z,14.98
2018-03-02T02:15:14.398Z,14.96
2018-03-02T02:16:14.402Z,14.96
2018-03-02T02:17:14.379Z,14.95
2018-03-02T02:18:14.401Z,14.95
2018-03-02T02:19:14.417Z,14.95
2018-03-02T02:20:14.399Z,14.95
2018-03-02T02:21:14.374Z,14.96
2018-03-02T02:22:14.393Z,14.95
2018-03-02T02:23:14.411Z,14.95
2018-03-02T02:24:14.354Z,14.94
2018-03-02T02:25:14.417Z,14.94
2018-03-02T02:26:14.392Z,14.94
2018-03-02T02:27:14.386Z,14.93
2018-03-02T02:28:14.376Z,14.92
2018-03-02T02:29:14.392Z,14.93
2018-03-02T02:30:14.410Z,14.94
2018-03-02T02:31:14.396Z,14.94
2018-03-02T02:32:14.404Z,14.93
2018-03-02T02:33:14.427Z,14.92
2018-03-02T02:34:14.513Z,14.92
2018-03-02T02:35:14.494Z,14.91
2018-03-02T02:36:14.389Z,14.92
2018-03-02T02:37:14.378Z,14.91
2018-03-02T02:38:14.440Z,14.9
2018-03-02T02:39:14.709Z,14.91
2018-03-02T02:40:14.369Z,14.9
2018-03-02T02:41:14.409Z,14.89
2018-03-02T02:42:14.378Z,14.89
2018-03-02T02:43:14.384Z,14.89
2018-03-02T02:44:14.407Z,14.88
2018-03-02T02:45:14.358Z,14.88
2018-03-02T02:46:14.414Z,14.87
2018-03-02T02:47:14.353Z,14.87
2018-03-02T02:48:14.382Z,14.87
2018-03-02T02:49:14.405Z,14.87
2018-03-02T02:50:14.420Z,14.87
2018-03-02T02:51:14.378Z,14.86
2018-03-02T02:52:14.358Z,14.86
2018-03-02T02:53:14.360Z,14.86
2018-03-02T02:54:14.395Z,14.86
2018-03-02T02:55:14.392Z,14.86
2018-03-02T02:56:14.377Z,14.86
2018-03-02T02:57:14.388Z,14.86
2018-03-02T02:58:14.394Z,14.85
2018-03-02T02:59:14.390Z,14.86
2018-03-02T03:00:14.407Z,14.85
2018-03-02T03:01:14.368Z,14.86
2018-03-02T03:02:14.363Z,14.85
2018-03-02T03:03:14.389Z,14.85
2018-03-02T03:04:14.616Z,14.84
2018-03-02T03:05:14.349Z,14.82
2018-03-02T03:06:14.377Z,14.83
2018-03-02T03:07:14.352Z,14.82
2018-03-02T03:08:14.364Z,14.82
2018-03-02T03:09:14.382Z,14.82
2018-03-02T03:10:14.370Z,14.83
2018-03-02T03:11:14.361Z,14.81
2018-03-02T03:12:14.417Z,14.81
2018-03-02T03:13:14.355Z,14.82
2018-03-02T03:14:14.342Z,14.8
2018-03-02T03:15:14.354Z,14.79
2018-03-02T03:16:14.391Z,14.79
2018-03-02T03:17:14.385Z,14.79
2018-03-02T03:18:14.347Z,14.79
2018-03-02T03:19:14.337Z,14.79
2018-03-02T03:20:14.392Z,14.79
2018-03-02T03:21:14.376Z,14.79
2018-03-02T03:22:14.389Z,14.79
2018-03-02T03:23:14.335Z,14.79
2018-03-02T03:24:14.373Z,14.79
2018-03-02T03:25:14.354Z,14.78
2018-03-02T03:26:14.347Z,14.77
2018-03-02T03:27:14.380Z,14.76
2018-03-02T03:28:14.356Z,14.77
2018-03-02T03:29:14.360Z,14.76
2018-03-02T03:30:14.373Z,14.75
2018-03-02T03:31:14.370Z,14.76
2018-03-02T03:32:14.355Z,14.76
2018-03-02T03:33:14.361Z,14.75
2018-03-02T03:34:14.351Z,14.75
2018-03-02T03:35:14.346Z,14.74
2018-03-02T03:36:14.379Z,14.72
2018-03-02T03:37:14.342Z,14.74
2018-03-02T03:38:14.356Z,14.74
2018-03-02T03:39:14.353Z,14.74
2018-03-02T03:40:14.377Z,14.74
2018-03-02T03:41:14.342Z,14.73
2018-03-02T03:42:14.342Z,14.73
2018-03-02T03:43:14.341Z,14.73
2018-03-02T03:44:14.343Z,14.73
2018-03-02T03:45:14.352Z,14.72
2018-03-02T03:46:14.345Z,14.72
2018-03-02T03:47:14.337Z,14.72
2018-03-02T03:48:14.352Z,14.72
2018-03-02T03:49:14.366Z,14.72
2018-03-02T03:50:14.367Z,14.72
2018-03-02T03:51:14.706Z,14.71
2018-03-02T03:52:14.367Z,14.71
2018-03-02T03:53:14.337Z,14.7
2018-03-02T03:54:14.331Z,14.7
2018-03-02T03:55:14.404Z,14.7
2018-03-02T03:56:14.335Z,14.69
2018-03-02T03:57:14.373Z,14.69
2018-03-02T03:58:14.353Z,14.69
2018-03-02T03:59:14.339Z,14.69
2018-03-02T04:00:14.357Z,14.7
2018-03-02T04:01:14.354Z,14.7
2018-03-02T04:02:14.336Z,14.69
2018-03-02T04:03:14.344Z,14.69
2018-03-02T04:04:14.340Z,14.68
2018-03-02T04:05:14.370Z,14.69
2018-03-02T04:06:14.338Z,14.68
2018-03-02T04:07:14.342Z,14.67
2018-03-02T04:08:14.336Z,14.68
2018-03-02T04:09:14.358Z,14.67
2018-03-02T04:10:14.369Z,14.66
2018-03-02T04:11:14.331Z,14.66
2018-03-02T04:12:14.350Z,14.67
2018-03-02T04:13:14.324Z,14.66
2018-03-02T04:14:14.353Z,14.66
2018-03-02T04:15:14.348Z,14.65
2018-03-02T04:16:14.358Z,14.64
2018-03-02T04:17:14.373Z,14.63
2018-03-02T04:18:14.327Z,14.63
2018-03-02T04:19:14.355Z,14.64
2018-03-02T04:20:14.341Z,14.62
2018-03-02T04:21:14.330Z,14.63
2018-03-02T04:22:14.316Z,14.63
2018-03-02T04:23:14.354Z,14.63
2018-03-02T04:24:14.329Z,14.62
2018-03-02T04:25:14.336Z,14.61
2018-03-02T04:26:14.324Z,14.6
2018-03-02T04:27:14.352Z,14.61
2018-03-02T04:28:14.318Z,14.59
2018-03-02T04:29:14.351Z,14.6
2018-03-02T04:30:14.334Z,14.61
2018-03-02T04:31:14.327Z,14.6
2018-03-02T04:32:14.337Z,14.6
2018-03-02T04:33:14.327Z,14.59
2018-03-02T04:34:14.317Z,14.59
2018-03-02T04:35:14.429Z,14.59
2018-03-02T04:36:14.427Z,14.59
2018-03-02T04:37:14.329Z,14.59
2018-03-02T04:38:14.359Z,14.6
2018-03-02T04:39:14.313Z,14.59
2018-03-02T04:40:14.339Z,14.59
2018-03-02T04:41:14.330Z,14.59
2018-03-02T04:42:14.311Z,14.59
2018-03-02T04:43:14.385Z,14.59
2018-03-02T04:44:14.337Z,14.59
2018-03-02T04:45:14.317Z,14.59
2018-03-02T04:46:14.342Z,14.59
2018-03-02T04:47:14.330Z,14.59
2018-03-02T04:48:14.328Z,14.58
2018-03-02T04:49:14.307Z,14.56
2018-03-02T04:50:14.329Z,14.57
2018-03-02T04:51:14.323Z,14.57
2018-03-02T04:52:14.723Z,14.57
2018-03-02T04:53:14.332Z,14.56
2018-03-02T04:54:14.322Z,14.56
2018-03-02T04:55:14.373Z,14.56
2018-03-02T04:56:14.316Z,14.57
2018-03-02T04:57:14.337Z,14.57
2018-03-02T04:58:14.318Z,14.57
2018-03-02T04:59:14.301Z,14.57
2018-03-02T05:00:14.299Z,14.56
2018-03-02T05:01:14.315Z,14.57
2018-03-02T05:02:14.355Z,14.56
2018-03-02T05:03:14.337Z,14.56
2018-03-02T05:04:14.313Z,14.56
2018-03-02T05:05:14.327Z,14.56
2018-03-02T05:06:14.332Z,14.54
2018-03-02T05:07:14.335Z,14.55
2018-03-02T05:08:14.346Z,14.55
2018-03-02T05:09:14.343Z,14.55
2018-03-02T05:10:14.328Z,14.56
2018-03-02T05:11:14.302Z,14.55
2018-03-02T05:12:14.310Z,14.55
2018-03-02T05:13:14.347Z,14.55
2018-03-02T05:14:14.295Z,14.55
2018-03-02T05:15:14.322Z,14.56
2018-03-02T05:16:14.299Z,14.57
2018-03-02T05:17:14.327Z,14.57
2018-03-02T05:18:14.312Z,14.58
2018-03-02T05:19:14.341Z,14.59
2018-03-02T05:20:14.305Z,14.59
2018-03-02T05:21:14.304Z,14.59
2018-03-02T05:22:14.322Z,14.6
2018-03-02T05:23:14.300Z,14.61
2018-03-02T05:24:14.335Z,14.61
2018-03-02T05:25:14.313Z,14.62
2018-03-02T05:26:14.300Z,14.64
2018-03-02T05:27:14.372Z,14.65
2018-03-02T05:28:14.304Z,14.66
2018-03-02T05:29:14.295Z,14.66
2018-03-02T05:30:14.307Z,14.67
2018-03-02T05:31:14.341Z,14.69
2018-03-02T05:32:14.312Z,14.7
2018-03-02T05:33:14.300Z,14.72
2018-03-02T05:34:14.305Z,14.72
2018-03-02T05:35:14.315Z,14.74
2018-03-02T05:36:14.325Z,14.75
2018-03-02T05:37:14.298Z,14.77
2018-03-02T05:38:14.305Z,14.79
2018-03-02T05:39:14.367Z,14.79
2018-03-02T05:40:14.300Z,14.81
2018-03-02T05:41:14.286Z,14.83
2018-03-02T05:42:14.321Z,14.85
2018-03-02T05:43:14.295Z,14.86
2018-03-02T05:44:14.282Z,14.88
2018-03-02T05:45:14.369Z,14.9
2018-03-02T05:46:14.299Z,14.92
2018-03-02T05:47:14.333Z,14.94
2018-03-02T05:48:14.300Z,14.96
2018-03-02T05:49:14.317Z,14.98
2018-03-02T05:50:14.322Z,14.99
2018-03-02T05:51:14.299Z,15.02
2018-03-02T05:52:14.306Z,15.04
2018-03-02T05:53:14.323Z,15.05
2018-03-02T05:54:14.292Z,15.07
2018-03-02T05:55:14.300Z,15.09
2018-03-02T05:56:14.312Z,15.11
2018-03-02T05:57:14.305Z,15.12
2018-03-02T05:58:14.290Z,15.15
2018-03-02T05:59:14.290Z,15.16
2018-03-02T06:00:14.289Z,15.18
2018-03-02T06:01:14.291Z,15.19
2018-03-02T06:02:14.283Z,15.21
2018-03-02T06:03:14.295Z,15.24
2018-03-02T06:04:14.288Z,15.25
2018-03-02T06:05:14.339Z,15.27
2018-03-02T06:06:14.320Z,15.28
2018-03-02T06:07:14.288Z,15.3
2018-03-02T06:08:14.281Z,15.31
2018-03-02T06:09:14.279Z,15.33
2018-03-02T06:10:14.296Z,15.34
2018-03-02T06:11:14.292Z,15.36
2018-03-02T06:12:14.293Z,15.38
2018-03-02T06:13:14.303Z,15.39
2018-03-02T06:14:14.322Z,15.4
2018-03-02T06:15:14.284Z,15.42
2018-03-02T06:16:14.293Z,15.44
2018-03-02T06:17:14.311Z,15.44
2018-03-02T06:18:14.278Z,15.46
2018-03-02T06:19:14.278Z,15.47
2018-03-02T06:20:14.285Z,15.48
2018-03-02T06:21:14.306Z,15.5
2018-03-02T06:22:14.291Z,15.51
2018-03-02T06:23:14.291Z,15.51
2018-03-02T06:24:14.287Z,15.52
2018-03-02T06:25:14.282Z,15.54
2018-03-02T06:26:14.289Z,15.55
2018-03-02T06:27:14.278Z,15.56
2018-03-02T06:28:14.314Z,15.57
2018-03-02T06:29:14.285Z,15.58
2018-03-02T06:30:14.304Z,15.59
2018-03-02T06:31:14.297Z,15.6
2018-03-02T06:32:14.296Z,15.61
2018-03-02T06:33:14.285Z,15.62
2018-03-02T06:34:14.299Z,15.63
2018-03-02T06:35:14.268Z,15.64
2018-03-02T06:36:14.381Z,15.64
2018-03-02T06:37:14.373Z,15.65
2018-03-02T06:38:14.265Z,15.66
2018-03-02T06:39:14.287Z,15.67
2018-03-02T06:40:14.613Z,15.68
2018-03-02T06:41:14.279Z,15.69
2018-03-02T06:42:14.303Z,15.7
2018-03-02T06:43:14.280Z,15.7
2018-03-02T06:44:14.262Z,15.71
2018-03-02T06:45:14.283Z,15.73
2018-03-02T06:46:14.281Z,15.73
2018-03-02T06:47:14.752Z,15.75
2018-03-02T06:48:14.294Z,15.75
2018-03-02T06:49:14.312Z,15.76
2018-03-02T06:50:14.279Z,15.77
2018-03-02T06:51:14.319Z,15.77
2018-03-02T06:52:14.322Z,15.78
2018-03-02T06:53:14.279Z,15.79
2018-03-02T06:54:14.274Z,15.81
2018-03-02T06:55:14.282Z,15.81
2018-03-02T06:56:14.261Z,15.83
2018-03-02T06:57:14.301Z,15.83
2018-03-02T06:58:14.274Z,15.83
2018-03-02T06:59:14.271Z,15.84
2018-03-02T07:00:14.262Z,15.85
2018-03-02T07:01:14.271Z,15.86
2018-03-02T07:02:14.299Z,15.87
2018-03-02T07:03:14.267Z,15.88
2018-03-02T07:04:14.497Z,15.89
2018-03-02T07:05:14.261Z,15.89
2018-03-02T07:06:14.322Z,15.9
2018-03-02T07:07:14.298Z,15.9
2018-03-02T07:08:14.258Z,15.9
2018-03-02T07:09:14.288Z,15.91
2018-03-02T07:10:14.277Z,15.91
2018-03-02T07:11:14.269Z,15.91
2018-03-02T07:12:14.259Z,15.91
2018-03-02T07:13:14.277Z,15.92
2018-03-02T07:14:14.268Z,15.92
2018-03-02T07:15:14.265Z,15.91
2018-03-02T07:16:14.318Z,15.91
2018-03-02T07:17:14.545Z,15.91
2018-03-02T07:18:14.250Z,15.92
2018-03-02T07:19:14.248Z,15.91
2018-03-02T07:20:14.292Z,15.91
2018-03-02T07:21:14.252Z,15.92
2018-03-02T07:22:14.288Z,15.91
2018-03-02T07:23:14.262Z,15.92
2018-03-02T07:24:14.254Z,15.92
2018-03-02T07:25:14.268Z,15.92
2018-03-02T07:26:14.267Z,15.92
2018-03-02T07:27:14.254Z,15.92
2018-03-02T07:28:14.261Z,15.92
2018-03-02T07:29:14.277Z,15.92
2018-03-02T07:30:14.265Z,15.96
2018-03-02T07:31:14.342Z,15.96
2018-03-02T07:32:14.245Z,15.94
2018-03-02T07:33:14.251Z,15.94
2018-03-02T07:34:14.281Z,15.94
2018-03-02T07:35:14.257Z,15.94
2018-03-02T07:36:14.260Z,15.94
2018-03-02T07:37:14.255Z,15.94
2018-03-02T07:38:14.275Z,15.94
2018-03-02T07:39:14.258Z,15.94
2018-03-02T07:40:14.268Z,15.95
2018-03-02T07:41:14.267Z,15.95
2018-03-02T07:42:14.275Z,15.95
2018-03-02T07:43:14.251Z,15.96
2018-03-02T07:44:14.467Z,15.96
2018-03-02T07:45:14.266Z,15.96
2018-03-02T07:46:14.252Z,15.96
2018-03-02T07:47:14.251Z,15.96
2018-03-02T07:48:14.245Z,15.97
2018-03-02T07:49:14.320Z,15.98
2018-03-02T07:50:14.260Z,15.98
2018-03-02T07:51:14.287Z,15.99
2018-03-02T07:52:14.319Z,16
2018-03-02T07:53:14.255Z,16.01
2018-03-02T07:54:14.267Z,16.01
2018-03-02T07:55:14.286Z,16.02
2018-03-02T07:56:14.237Z,16.02
2018-03-02T07:57:14.258Z,16.03
2018-03-02T07:58:14.254Z,16.04
2018-03-02T07:59:14.251Z,16.05
2018-03-02T08:00:14.246Z,16.05
2018-03-02T08:01:14.275Z,16.07
2018-03-02T08:02:14.263Z,16.07
2018-03-02T08:03:14.266Z,16.08
2018-03-02T08:04:14.292Z,16.09
2018-03-02T08:05:14.260Z,16.09
2018-03-02T08:06:14.270Z,16.09
2018-03-02T08:07:14.280Z,16.1
2018-03-02T08:08:14.262Z,16.11
2018-03-02T08:09:14.280Z,16.12
2018-03-02T08:10:14.307Z,16.13
2018-03-02T08:11:14.292Z,16.14
2018-03-02T08:12:14.274Z,16.14
2018-03-02T08:13:14.271Z,16.15
2018-03-02T08:14:14.259Z,16.16
2018-03-02T08:15:14.269Z,16.17
2018-03-02T08:16:14.733Z,16.17
2018-03-02T08:17:14.295Z,16.18
2018-03-02T08:18:14.287Z,16.18
2018-03-02T08:19:14.267Z,16.2
2018-03-02T08:20:14.264Z,16.2
2018-03-02T08:21:15.484Z,16.21
2018-03-02T08:22:14.293Z,16.22
2018-03-02T08:23:14.273Z,16.22
2018-03-02T08:24:17.651Z,16.22
2018-03-02T08:25:14.275Z,16.23
2018-03-02T08:26:14.260Z,16.24
2018-03-02T08:27:14.282Z,16.25
2018-03-02T08:28:17.649Z,16.26
2018-03-02T08:29:14.286Z,16.26
2018-03-02T08:30:17.623Z,16.28
2018-03-02T08:31:14.319Z,16.28
2018-03-02T08:32:14.283Z,16.28
2018-03-02T08:33:14.275Z,16.29
2018-03-02T08:34:14.270Z,16.29
2018-03-02T08:35:14.267Z,16.29
2018-03-02T08:36:14.298Z,16.3
2018-03-02T08:37:14.359Z,16.31
2018-03-02T08:38:14.352Z,16.32
2018-03-02T08:39:15.235Z,16.33
2018-03-02T08:40:17.212Z,16.34
2018-03-02T08:41:14.941Z,16.34
2018-03-02T08:42:14.246Z,16.34
2018-03-02T08:43:14.235Z,16.34
2018-03-02T08:44:14.248Z,16.35
2018-03-02T08:45:14.241Z,16.36
2018-03-02T08:46:14.255Z,16.37
2018-03-02T08:47:14.227Z,16.37
2018-03-02T08:48:14.234Z,16.38
2018-03-02T08:49:14.219Z,16.39
2018-03-02T08:50:14.241Z,16.39
2018-03-02T08:51:14.275Z,16.4
2018-03-02T08:52:14.208Z,16.41
2018-03-02T08:53:14.218Z,16.41
2018-03-02T08:54:14.235Z,16.41
2018-03-02T08:55:14.230Z,16.41
2018-03-02T08:56:14.261Z,16.42
2018-03-02T08:57:14.229Z,16.43
2018-03-02T08:58:14.223Z,16.43
2018-03-02T08:59:14.228Z,16.43
2018-03-02T09:00:14.238Z,16.44
2018-03-02T09:01:14.236Z,16.45
2018-03-02T09:02:14.227Z,16.45
2018-03-02T09:03:14.227Z,16.46
2018-03-02T09:04:14.232Z,16.46
2018-03-02T09:05:14.237Z,16.47
2018-03-02T09:06:14.241Z,16.47
2018-03-02T09:07:14.211Z,16.47
2018-03-02T09:08:14.243Z,16.47
2018-03-02T09:09:14.210Z,16.48
2018-03-02T09:10:14.249Z,16.48
2018-03-02T09:11:14.228Z,16.49
2018-03-02T09:12:14.229Z,16.49
2018-03-02T09:13:14.236Z,16.5
2018-03-02T09:14:14.216Z,16.5
2018-03-02T09:15:14.222Z,16.5
2018-03-02T09:16:14.259Z,16.51
2018-03-02T09:17:14.250Z,16.51
2018-03-02T09:18:14.340Z,16.51
2018-03-02T09:19:14.287Z,16.52
2018-03-02T09:20:14.254Z,16.53
2018-03-02T09:21:14.230Z,16.53
2018-03-02T09:22:14.250Z,16.53
2018-03-02T09:23:14.214Z,16.53
2018-03-02T09:24:14.233Z,16.53
2018-03-02T09:25:14.228Z,16.54
2018-03-02T09:26:14.240Z,16.54
2018-03-02T09:27:14.229Z,16.54
2018-03-02T09:28:14.214Z,16.54
2018-03-02T09:29:14.202Z,16.55
2018-03-02T09:30:14.505Z,16.55
2018-03-02T09:31:14.227Z,16.55
2018-03-02T09:32:14.224Z,16.56
2018-03-02T09:33:14.227Z,16.56
2018-03-02T09:34:14.212Z,16.57
2018-03-02T09:35:14.228Z,16.57
2018-03-02T09:36:14.217Z,16.57
2018-03-02T09:37:14.231Z,16.58
2018-03-02T09:38:14.226Z,16.58
2018-03-02T09:39:14.200Z,16.58
2018-03-02T09:40:14.221Z,16.59
2018-03-02T09:41:14.199Z,16.58
2018-03-02T09:42:14.283Z,16.59
2018-03-02T09:43:14.227Z,16.59
2018-03-02T09:44:14.203Z,16.6
2018-03-02T09:45:14.206Z,16.6
2018-03-02T09:46:14.211Z,16.6
2018-03-02T09:47:14.213Z,16.6
2018-03-02T09:48:14.349Z,16.6
2018-03-02T09:49:14.201Z,16.6
2018-03-02T09:50:14.207Z,16.6
2018-03-02T09:51:14.237Z,16.6
2018-03-02T09:52:14.222Z,16.61
2018-03-02T09:53:14.223Z,16.6
2018-03-02T09:54:14.204Z,16.61
2018-03-02T09:55:14.233Z,16.61
2018-03-02T09:56:14.209Z,16.61
2018-03-02T09:57:14.215Z,16.61
2018-03-02T09:58:14.220Z,16.62
2018-03-02T09:59:14.203Z,16.62
2018-03-02T10:00:14.209Z,16.62
2018-03-02T10:01:14.212Z,16.62
2018-03-02T10:02:14.247Z,16.62
2018-03-02T10:03:14.592Z,16.63
2018-03-02T10:04:14.216Z,16.63
2018-03-02T10:05:14.204Z,16.63
2018-03-02T10:06:14.199Z,16.63
2018-03-02T10:07:14.203Z,16.63
2018-03-02T10:08:14.239Z,16.64
2018-03-02T10:09:14.423Z,16.64
2018-03-02T10:10:14.211Z,16.64
2018-03-02T10:11:14.198Z,16.65
2018-03-02T10:12:14.197Z,16.65
2018-03-02T10:13:14.203Z,16.66
2018-03-02T10:14:14.214Z,16.66
2018-03-02T10:15:14.200Z,16.66
2018-03-02T10:16:14.205Z,16.66
2018-03-02T10:17:14.199Z,16.66
2018-03-02T10:18:14.248Z,16.67
2018-03-02T10:19:14.213Z,16.66
2018-03-02T10:20:14.193Z,16.67
2018-03-02T10:21:14.213Z,16.68
2018-03-02T10:22:14.266Z,16.68
2018-03-02T10:23:14.222Z,16.68
2018-03-02T10:24:14.210Z,16.69
2018-03-02T10:25:14.197Z,16.69
2018-03-02T10:26:14.195Z,16.69
2018-03-02T10:27:14.232Z,16.7
2018-03-02T10:28:14.228Z,16.7
2018-03-02T10:29:14.198Z,16.7
2018-03-02T10:30:14.370Z,16.71
2018-03-02T10:31:14.210Z,16.72
2018-03-02T10:32:14.219Z,16.71
2018-03-02T10:33:14.197Z,16.71
2018-03-02T10:34:14.200Z,16.72
2018-03-02T10:35:14.176Z,16.72
2018-03-02T10:36:14.224Z,16.72
2018-03-02T10:37:14.193Z,16.73
2018-03-02T10:38:14.332Z,16.72
2018-03-02T10:39:14.299Z,16.73
2018-03-02T10:40:14.190Z,16.73
2018-03-02T10:41:14.200Z,16.73
2018-03-02T10:42:14.185Z,16.74
2018-03-02T10:43:14.227Z,16.74
2018-03-02T10:44:14.202Z,16.73
2018-03-02T10:45:14.222Z,16.74
2018-03-02T10:46:14.190Z,16.74
2018-03-02T10:47:14.198Z,16.74
2018-03-02T10:48:14.204Z,16.74
2018-03-02T10:49:14.468Z,16.75
2018-03-02T10:50:14.199Z,16.76
2018-03-02T10:51:14.201Z,16.76
2018-03-02T10:52:14.203Z,16.76
2018-03-02T10:53:14.176Z,16.76
2018-03-02T10:54:14.212Z,16.77
2018-03-02T10:55:14.181Z,16.77
2018-03-02T10:56:14.376Z,16.77
2018-03-02T10:57:14.186Z,16.77
2018-03-02T10:58:14.195Z,16.77
2018-03-02T10:59:14.214Z,16.77
2018-03-02T11:00:14.181Z,16.77
2018-03-02T11:01:14.198Z,16.78
2018-03-02T11:02:14.182Z,16.78
2018-03-02T11:03:14.187Z,16.79
2018-03-02T11:04:14.178Z,16.79
2018-03-02T11:05:14.184Z,16.79
2018-03-02T11:06:14.200Z,16.79
2018-03-02T11:07:14.192Z,16.79
2018-03-02T11:08:14.185Z,16.79
2018-03-02T11:09:14.189Z,16.79
2018-03-02T11:10:14.186Z,16.79
2018-03-02T11:11:14.193Z,16.8
2018-03-02T11:12:14.189Z,16.79
2018-03-02T11:13:14.223Z,16.8
2018-03-02T11:14:14.200Z,16.8
2018-03-02T11:15:14.244Z,16.8
2018-03-02T11:16:14.204Z,16.8
2018-03-02T11:17:14.200Z,16.81
2018-03-02T11:18:14.189Z,16.81
2018-03-02T11:19:14.200Z,16.81
2018-03-02T11:20:14.185Z,16.81
2018-03-02T11:21:14.187Z,16.82
2018-03-02T11:22:14.177Z,16.82
2018-03-02T11:23:14.180Z,16.82
2018-03-02T11:24:14.169Z,16.82
2018-03-02T11:25:14.178Z,16.82
2018-03-02T11:26:14.171Z,16.82
2018-03-02T11:27:14.176Z,16.82
2018-03-02T11:28:14.195Z,16.82
2018-03-02T11:29:14.168Z,16.83
2018-03-02T11:30:14.165Z,16.83
2018-03-02T11:31:14.182Z,16.84
2018-03-02T11:32:14.193Z,16.84
2018-03-02T11:33:14.198Z,16.84
2018-03-02T11:34:14.162Z,16.85
2018-03-02T11:35:14.177Z,16.85
2018-03-02T11:36:14.168Z,16.85
2018-03-02T11:37:14.187Z,16.85
2018-03-02T11:38:14.165Z,16.85
2018-03-02T11:39:14.187Z,16.85
2018-03-02T11:40:14.188Z,16.85
2018-03-02T11:41:14.175Z,16.85
2018-03-02T11:42:14.180Z,16.85
2018-03-02T11:43:14.191Z,16.85
2018-03-02T11:44:14.201Z,16.85
2018-03-02T11:45:16.640Z,16.86
2018-03-02T11:46:16.639Z,16.86
2018-03-02T11:47:16.393Z,16.87
2018-03-02T11:48:14.222Z,16.86
2018-03-02T11:49:14.204Z,16.87
2018-03-02T11:50:16.659Z,16.86
2018-03-02T11:51:16.538Z,16.87
2018-03-02T11:52:16.394Z,16.87
2018-03-02T11:53:16.647Z,16.88
2018-03-02T11:54:17.040Z,16.87
2018-03-02T11:55:14.194Z,16.88
2018-03-02T11:56:16.542Z,16.88
2018-03-02T11:57:16.782Z,16.88
2018-03-02T11:58:14.193Z,16.88
2018-03-02T11:59:14.194Z,16.89
2018-03-02T12:00:16.397Z,16.89
2018-03-02T12:01:14.204Z,16.89
2018-03-02T12:02:16.143Z,16.9
2018-03-02T12:03:14.208Z,16.9
2018-03-02T12:04:14.215Z,16.89
2018-03-02T12:05:17.064Z,16.9
2018-03-02T12:06:14.219Z,16.89
2018-03-02T12:07:14.192Z,16.9
2018-03-02T12:08:14.198Z,16.9
2018-03-02T12:09:14.366Z,16.9
2018-03-02T12:10:16.308Z,16.9
2018-03-02T12:11:14.196Z,16.9
2018-03-02T12:12:14.210Z,16.91
2018-03-02T12:13:14.206Z,16.91
2018-03-02T12:14:14.194Z,16.91
2018-03-02T12:15:14.214Z,16.92
2018-03-02T12:16:14.242Z,16.91
2018-03-02T12:17:14.206Z,16.92
2018-03-02T12:18:14.782Z,16.92
2018-03-02T12:19:14.202Z,16.92
2018-03-02T12:20:14.841Z,16.92
2018-03-02T12:21:14.189Z,16.92
2018-03-02T12:22:14.213Z,16.92
2018-03-02T12:23:14.245Z,16.92
2018-03-02T12:24:14.758Z,16.92
2018-03-02T12:25:16.283Z,16.92
2018-03-02T12:26:14.232Z,16.92
2018-03-02T12:27:14.201Z,16.92
2018-03-02T12:28:14.176Z,16.93
2018-03-02T12:29:14.173Z,16.92
2018-03-02T12:30:14.760Z,16.93
2018-03-02T12:31:14.451Z,16.93
2018-03-02T12:32:14.177Z,16.93
2018-03-02T12:33:14.202Z,16.93
2018-03-02T12:34:14.793Z,16.94
2018-03-02T12:35:14.212Z,16.94
2018-03-02T12:36:14.797Z,16.94
2018-03-02T12:37:14.212Z,16.94
2018-03-02T12:38:14.222Z,16.94
2018-03-02T12:39:14.278Z,16.94
2018-03-02T12:40:14.255Z,16.95
2018-03-02T12:41:14.185Z,16.95
2018-03-02T12:42:14.200Z,16.95
2018-03-02T12:43:14.442Z,16.96
2018-03-02T12:44:14.165Z,16.95
2018-03-02T12:45:14.217Z,16.96
2018-03-02T12:46:14.175Z,16.96
2018-03-02T12:47:14.143Z,16.96
2018-03-02T12:48:14.173Z,16.96
2018-03-02T12:49:14.799Z,16.96
2018-03-02T12:50:14.150Z,16.96
2018-03-02T12:51:14.147Z,16.96
2018-03-02T12:52:14.149Z,16.97
2018-03-02T12:53:14.178Z,16.97
2018-03-02T12:54:14.150Z,16.97
2018-03-02T12:55:14.556Z,16.97